Captain Koulis — SV5456 — position and weather

sailwx.info

Track history (hours):
 
Tides and Currents Weather Stations Pressure Air Temp Water Temp Dewpoint Dewpoint Depression Visibility Wind Speed Wind Dir Waves Ship Positions

Captain Koulis

Last reported at 2014-Dec-22 10:33 UTC. Time now 2014-Dec-22 10:40 UTC.
Position N 36°25' E 025°26'.

Length 21 m.

Type: Passenger vessel. MMSI: 239173800.

Date/timePositionNaut miles runAvg speedWind from/ knotsBaromVisibWave heightAir tempDewpointWater temp
2014-Dec-22 10:33N 36°25' E 025°26'0 0.0
2014-Dec-22 09:33N 36°25' E 025°26'0 0.0
2014-Dec-22 07:33N 36°25' E 025°26'0 0.0
2014-Dec-22 06:32N 36°25' E 025°26'5 0.2
2014-Dec-21 09:09N 36°27' E 025°21'0 0.0
2014-Dec-21 08:33N 36°27' E 025°21'0 0.0
2014-Dec-21 07:33N 36°27' E 025°21'0 0.0
2014-Dec-21 06:33N 36°27' E 025°21'4 3.7
2014-Dec-21 05:34N 36°25' E 025°24'0 0.0
2014-Dec-20 12:33N 36°25' E 025°24'4 3.8
2014-Dec-20 11:33N 36°27' E 025°21'0 0.0
2014-Dec-20 10:33N 36°27' E 025°21'0 0.0
2014-Dec-20 09:33N 36°27' E 025°21'0 0.0
2014-Dec-20 08:33N 36°27' E 025°21'0 0.0
2014-Dec-20 07:33N 36°27' E 025°21'0 0.0
2014-Dec-20 06:33N 36°27' E 025°21'4 3.7
2014-Dec-20 05:33N 36°25' E 025°24'0 0.0
2014-Dec-19 12:32N 36°25' E 025°24'3 2.7
2014-Dec-19 11:33N 36°27' E 025°22'5 2.3
2014-Dec-19 09:33N 36°23' E 025°26'0 0.0
2014-Dec-19 08:33N 36°23' E 025°26'0 0.0
2014-Dec-19 07:33N 36°23' E 025°26'1 0.6
2014-Dec-19 06:33N 36°24' E 025°25'1 1.4
2014-Dec-19 05:33N 36°25' E 025°24'0 0.0
2014-Dec-18 12:32N 36°25' E 025°24'3 3.5
2014-Dec-18 11:33N 36°27' E 025°21'3 0.8
2014-Dec-18 07:31N 36°25' E 025°24'0 0.2
2014-Dec-18 06:33N 36°25' E 025°24'0 0.1
2014-Dec-18 05:33N 36°25' E 025°24'0 0.0
2014-Dec-17 12:34N 36°25' E 025°24'4 3.7
2014-Dec-17 11:34N 36°27' E 025°21'4 1.7
2014-Dec-17 09:22N 36°25' E 025°24'0 0.0
2014-Dec-17 08:33N 36°25' E 025°24'0 0.0
2014-Dec-17 07:32N 36°25' E 025°24'0 0.4
2014-Dec-17 06:32N 36°25' E 025°24'0 0.4
2014-Dec-17 05:33N 36°25' E 025°24'3 0.2
2014-Dec-16 12:05N 36°28' E 025°22'1 2.5
2014-Dec-16 11:33N 36°27' E 025°21'5 4.6
2014-Dec-16 10:33N 36°25' E 025°26'1 1.3
2014-Dec-16 09:34N 36°25' E 025°24'0 0.0
2014-Dec-16 08:34N 36°25' E 025°24'1 1.2
2014-Dec-16 07:33N 36°25' E 025°26'1 1.5
2014-Dec-16 06:33N 36°25' E 025°24'1 0.6
2014-Dec-16 05:33N 36°25' E 025°24'0 0.0
2014-Dec-15 12:29N 36°25' E 025°24'1 1.3
2014-Dec-15 11:33N 36°26' E 025°23'1 1.2
2014-Dec-15 10:33N 36°25' E 025°24'0 0.0
2014-Dec-15 09:33N 36°25' E 025°24'0 0.0
2014-Dec-15 08:33N 36°25' E 025°24'0 0.0
2014-Dec-15 07:33N 36°25' E 025°24'1 1.2
2014-Dec-15 06:33N 36°26' E 025°23'1 0.8
2014-Dec-15 05:33N 36°25' E 025°24'0 0.0
2014-Dec-14 12:34N 36°25' E 025°24'4 3.7
2014-Dec-14 11:33N 36°27' E 025°21'0 0.0
2014-Dec-14 09:33N 36°27' E 025°21'0 0.0
2014-Dec-14 08:33N 36°27' E 025°21'0 0.0
2014-Dec-14 07:33N 36°27' E 025°21'0 0.0
2014-Dec-14 06:33N 36°27' E 025°21'3 0.2
2014-Dec-13 12:33N 36°25' E 025°24'3 2.7
2014-Dec-13 11:33N 36°27' E 025°22'3 3.0
2014-Dec-13 10:32N 36°25' E 025°24'0 0.0
2014-Dec-13 09:33N 36°25' E 025°24'0 0.0
2014-Dec-13 08:33N 36°25' E 025°24'0 0.0
2014-Dec-13 07:33N 36°25' E 025°24'0 0.0
2014-Dec-13 06:33N 36°25' E 025°24'0 0.0
2014-Dec-12 13:33N 36°25' E 025°24'  
Track history (hours):
 
Tides and Currents Weather Stations Pressure Air Temp Water Temp Dewpoint Dewpoint Depression Visibility Wind Speed Wind Dir Waves Ship Positions

Captain Koulis

Last reported at 2014-Dec-22 10:33 UTC. Time now 2014-Dec-22 10:40 UTC.
Position N 36°25' E 025°26'.

Length 21 m.

Type: Passenger vessel. MMSI: 239173800.

Date/timePositionNaut miles runAvg speedWind from/ knotsBaromVisibWave heightAir tempDewpointWater temp
2014-Dec-22 10:33N 36°25' E 025°26'0 0.0
2014-Dec-22 09:33N 36°25' E 025°26'0 0.0
2014-Dec-22 07:33N 36°25' E 025°26'0 0.0
2014-Dec-22 06:32N 36°25' E 025°26'5 0.2
2014-Dec-21 09:09N 36°27' E 025°21'0 0.0
2014-Dec-21 08:33N 36°27' E 025°21'0 0.0
2014-Dec-21 07:33N 36°27' E 025°21'0 0.0
2014-Dec-21 06:33N 36°27' E 025°21'4 3.7
2014-Dec-21 05:34N 36°25' E 025°24'0 0.0
2014-Dec-20 12:33N 36°25' E 025°24'4 3.8
2014-Dec-20 11:33N 36°27' E 025°21'0 0.0
2014-Dec-20 10:33N 36°27' E 025°21'0 0.0
2014-Dec-20 09:33N 36°27' E 025°21'0 0.0
2014-Dec-20 08:33N 36°27' E 025°21'0 0.0
2014-Dec-20 07:33N 36°27' E 025°21'0 0.0
2014-Dec-20 06:33N 36°27' E 025°21'4 3.7
2014-Dec-20 05:33N 36°25' E 025°24'0 0.0
2014-Dec-19 12:32N 36°25' E 025°24'3 2.7
2014-Dec-19 11:33N 36°27' E 025°22'5 2.3
2014-Dec-19 09:33N 36°23' E 025°26'0 0.0
2014-Dec-19 08:33N 36°23' E 025°26'0 0.0
2014-Dec-19 07:33N 36°23' E 025°26'1 0.6
2014-Dec-19 06:33N 36°24' E 025°25'1 1.4
2014-Dec-19 05:33N 36°25' E 025°24'0 0.0
2014-Dec-18 12:32N 36°25' E 025°24'3 3.5
2014-Dec-18 11:33N 36°27' E 025°21'3 0.8
2014-Dec-18 07:31N 36°25' E 025°24'0 0.2
2014-Dec-18 06:33N 36°25' E 025°24'0 0.1
2014-Dec-18 05:33N 36°25' E 025°24'0 0.0
2014-Dec-17 12:34N 36°25' E 025°24'4 3.7
2014-Dec-17 11:34N 36°27' E 025°21'4 1.7
2014-Dec-17 09:22N 36°25' E 025°24'0 0.0
2014-Dec-17 08:33N 36°25' E 025°24'0 0.0
2014-Dec-17 07:32N 36°25' E 025°24'0 0.4
2014-Dec-17 06:32N 36°25' E 025°24'0 0.4
2014-Dec-17 05:33N 36°25' E 025°24'3 0.2
2014-Dec-16 12:05N 36°28' E 025°22'1 2.5
2014-Dec-16 11:33N 36°27' E 025°21'5 4.6
2014-Dec-16 10:33N 36°25' E 025°26'1 1.3
2014-Dec-16 09:34N 36°25' E 025°24'0 0.0
2014-Dec-16 08:34N 36°25' E 025°24'1 1.2
2014-Dec-16 07:33N 36°25' E 025°26'1 1.5
2014-Dec-16 06:33N 36°25' E 025°24'1 0.6
2014-Dec-16 05:33N 36°25' E 025°24'0 0.0
2014-Dec-15 12:29N 36°25' E 025°24'1 1.3
2014-Dec-15 11:33N 36°26' E 025°23'1 1.2
2014-Dec-15 10:33N 36°25' E 025°24'0 0.0
2014-Dec-15 09:33N 36°25' E 025°24'0 0.0
2014-Dec-15 08:33N 36°25' E 025°24'0 0.0
2014-Dec-15 07:33N 36°25' E 025°24'1 1.2
2014-Dec-15 06:33N 36°26' E 025°23'1 0.8
2014-Dec-15 05:33N 36°25' E 025°24'0 0.0
2014-Dec-14 12:34N 36°25' E 025°24'4 3.7
2014-Dec-14 11:33N 36°27' E 025°21'0 0.0
2014-Dec-14 09:33N 36°27' E 025°21'0 0.0
2014-Dec-14 08:33N 36°27' E 025°21'0 0.0
2014-Dec-14 07:33N 36°27' E 025°21'0 0.0
2014-Dec-14 06:33N 36°27' E 025°21'3 0.2
2014-Dec-13 12:33N 36°25' E 025°24'3 2.7
2014-Dec-13 11:33N 36°27' E 025°22'3 3.0
2014-Dec-13 10:32N 36°25' E 025°24'0 0.0
2014-Dec-13 09:33N 36°25' E 025°24'0 0.0
2014-Dec-13 08:33N 36°25' E 025°24'0 0.0
2014-Dec-13 07:33N 36°25' E 025°24'0 0.0
2014-Dec-13 06:33N 36°25' E 025°24'0 0.0
2014-Dec-12 13:33N 36°25' E 025°24'  

Dump ship's entire track history